sensor_id;sensor_type;location;lat;lon;timestamp;temperature;humidity
18339;DHT22;9295;44.484;11.240;2022-07-23T00:01:14;28.20;90.00
18339;DHT22;9295;44.484;11.240;2022-07-23T00:03:50;28.20;90.50
18339;DHT22;9295;44.484;11.240;2022-07-23T00:06:19;28.10;90.30
18339;DHT22;9295;44.484;11.240;2022-07-23T00:08:47;28.10;90.60
18339;DHT22;9295;44.484;11.240;2022-07-23T00:11:16;28.10;90.80
18339;DHT22;9295;44.484;11.240;2022-07-23T00:13:45;28.00;91.00
18339;DHT22;9295;44.484;11.240;2022-07-23T00:16:14;28.00;91.40
18339;DHT22;9295;44.484;11.240;2022-07-23T00:18:42;27.90;91.60
18339;DHT22;9295;44.484;11.240;2022-07-23T00:21:12;27.80;91.80
18339;DHT22;9295;44.484;11.240;2022-07-23T00:23:41;27.80;92.10
18339;DHT22;9295;44.484;11.240;2022-07-23T00:26:10;27.80;92.40
18339;DHT22;9295;44.484;11.240;2022-07-23T00:28:38;27.70;92.60
18339;DHT22;9295;44.484;11.240;2022-07-23T00:31:09;27.60;92.90
18339;DHT22;9295;44.484;11.240;2022-07-23T00:33:38;27.60;93.30
18339;DHT22;9295;44.484;11.240;2022-07-23T00:36:09;27.60;93.70
18339;DHT22;9295;44.484;11.240;2022-07-23T00:38:39;27.50;94.00
18339;DHT22;9295;44.484;11.240;2022-07-23T00:41:08;27.40;94.20
18339;DHT22;9295;44.484;11.240;2022-07-23T00:43:36;27.40;94.50
18339;DHT22;9295;44.484;11.240;2022-07-23T00:46:05;27.30;94.80
18339;DHT22;9295;44.484;11.240;2022-07-23T00:48:34;27.30;95.10
18339;DHT22;9295;44.484;11.240;2022-07-23T00:51:05;27.30;95.30
18339;DHT22;9295;44.484;11.240;2022-07-23T00:53:35;27.30;95.50
18339;DHT22;9295;44.484;11.240;2022-07-23T00:56:06;27.30;95.50
18339;DHT22;9295;44.484;11.240;2022-07-23T00:58:35;27.20;95.80
18339;DHT22;9295;44.484;11.240;2022-07-23T01:01:04;27.10;96.30
18339;DHT22;9295;44.484;11.240;2022-07-23T01:03:33;27.10;96.60
18339;DHT22;9295;44.484;11.240;2022-07-23T01:06:02;27.10;96.70
18339;DHT22;9295;44.484;11.240;2022-07-23T01:08:31;27.10;96.70
18339;DHT22;9295;44.484;11.240;2022-07-23T01:11:01;27.00;97.00
18339;DHT22;9295;44.484;11.240;2022-07-23T01:13:31;26.90;97.20
18339;DHT22;9295;44.484;11.240;2022-07-23T01:16:00;26.80;97.30
18339;DHT22;9295;44.484;11.240;2022-07-23T01:18:29;26.80;97.40
18339;DHT22;9295;44.484;11.240;2022-07-23T01:20:57;26.70;97.50
18339;DHT22;9295;44.484;11.240;2022-07-23T01:23:28;26.70;97.80
18339;DHT22;9295;44.484;11.240;2022-07-23T01:25:59;26.60;97.80
18339;DHT22;9295;44.484;11.240;2022-07-23T01:28:28;26.50;98.20
18339;DHT22;9295;44.484;11.240;2022-07-23T01:30:59;26.40;98.50
18339;DHT22;9295;44.484;11.240;2022-07-23T01:33:34;26.50;98.70
18339;DHT22;9295;44.484;11.240;2022-07-23T01:36:03;26.40;98.70
18339;DHT22;9295;44.484;11.240;2022-07-23T01:38:33;26.40;98.80
18339;DHT22;9295;44.484;11.240;2022-07-23T01:41:02;26.30;99.10
18339;DHT22;9295;44.484;11.240;2022-07-23T01:43:32;26.20;99.30
18339;DHT22;9295;44.484;11.240;2022-07-23T01:46:01;26.20;99.60
18339;DHT22;9295;44.484;11.240;2022-07-23T01:48:38;26.20;99.80
18339;DHT22;9295;44.484;11.240;2022-07-23T01:51:36;26.10;99.90
18339;DHT22;9295;44.484;11.240;2022-07-23T01:54:26;26.20;99.90
18339;DHT22;9295;44.484;11.240;2022-07-23T01:56:58;26.20;99.90
18339;DHT22;9295;44.484;11.240;2022-07-23T01:59:28;26.20;99.90
18339;DHT22;9295;44.484;11.240;2022-07-23T02:01:56;26.20;99.90
18339;DHT22;9295;44.484;11.240;2022-07-23T02:04:25;26.20;99.90
18339;DHT22;9295;44.484;11.240;2022-07-23T02:06:55;26.20;99.90
18339;DHT22;9295;44.484;11.240;2022-07-23T02:09:30;26.20;99.90
18339;DHT22;9295;44.484;11.240;2022-07-23T02:11:59;26.10;99.90
18339;DHT22;9295;44.484;11.240;2022-07-23T02:14:27;26.10;99.90
18339;DHT22;9295;44.484;11.240;2022-07-23T02:16:56;26.10;99.90
18339;DHT22;9295;44.484;11.240;2022-07-23T02:19:25;26.10;99.90
18339;DHT22;9295;44.484;11.240;2022-07-23T02:21:54;26.00;99.90
18339;DHT22;9295;44.484;11.240;2022-07-23T02:24:24;25.90;99.90
18339;DHT22;9295;44.484;11.240;2022-07-23T02:26:54;25.90;99.90
18339;DHT22;9295;44.484;11.240;2022-07-23T02:29:23;25.80;99.90
18339;DHT22;9295;44.484;11.240;2022-07-23T02:31:54;25.80;99.90
18339;DHT22;9295;44.484;11.240;2022-07-23T02:34:22;25.70;99.90
18339;DHT22;9295;44.484;11.240;2022-07-23T02:36:54;25.60;99.90
18339;DHT22;9295;44.484;11.240;2022-07-23T02:39:24;25.50;99.90
18339;DHT22;9295;44.484;11.240;2022-07-23T02:41:56;25.40;99.90
18339;DHT22;9295;44.484;11.240;2022-07-23T02:44:25;25.40;99.90
18339;DHT22;9295;44.484;11.240;2022-07-23T02:46:54;25.30;99.90
18339;DHT22;9295;44.484;11.240;2022-07-23T02:49:23;25.20;99.90
18339;DHT22;9295;44.484;11.240;2022-07-23T02:51:52;25.20;99.90
18339;DHT22;9295;44.484;11.240;2022-07-23T02:54:21;25.20;99.90
18339;DHT22;9295;44.484;11.240;2022-07-23T02:56:53;25.20;99.90
18339;DHT22;9295;44.484;11.240;2022-07-23T02:59:22;25.30;99.90
18339;DHT22;9295;44.484;11.240;2022-07-23T03:01:50;25.20;99.90
18339;DHT22;9295;44.484;11.240;2022-07-23T03:04:19;25.20;99.90
18339;DHT22;9295;44.484;11.240;2022-07-23T03:06:48;25.10;99.90
18339;DHT22;9295;44.484;11.240;2022-07-23T03:09:18;25.10;99.90
18339;DHT22;9295;44.484;11.240;2022-07-23T03:11:46;25.00;99.90
18339;DHT22;9295;44.484;11.240;2022-07-23T03:14:19;25.00;99.90
18339;DHT22;9295;44.484;11.240;2022-07-23T03:16:47;25.00;99.90
18339;DHT22;9295;44.484;11.240;2022-07-23T03:19:21;25.00;99.90
18339;DHT22;9295;44.484;11.240;2022-07-23T03:21:50;24.90;99.90
18339;DHT22;9295;44.484;11.240;2022-07-23T03:24:19;24.80;99.90
18339;DHT22;9295;44.484;11.240;2022-07-23T03:26:50;24.80;99.90
18339;DHT22;9295;44.484;11.240;2022-07-23T03:29:20;24.90;99.90
18339;DHT22;9295;44.484;11.240;2022-07-23T03:31:48;24.90;99.90
18339;DHT22;9295;44.484;11.240;2022-07-23T03:34:17;24.90;99.90
18339;DHT22;9295;44.484;11.240;2022-07-23T03:36:46;25.00;99.90
18339;DHT22;9295;44.484;11.240;2022-07-23T03:39:15;25.00;99.90
18339;DHT22;9295;44.484;11.240;2022-07-23T03:41:44;25.00;99.90
18339;DHT22;9295;44.484;11.240;2022-07-23T03:44:13;24.90;99.90
18339;DHT22;9295;44.484;11.240;2022-07-23T03:46:44;24.80;99.90
18339;DHT22;9295;44.484;11.240;2022-07-23T03:49:12;24.60;99.90
18339;DHT22;9295;44.484;11.240;2022-07-23T03:51:41;24.60;99.90
18339;DHT22;9295;44.484;11.240;2022-07-23T03:54:10;24.60;99.90
18339;DHT22;9295;44.484;11.240;2022-07-23T03:56:38;24.60;99.90
18339;DHT22;9295;44.484;11.240;2022-07-23T03:59:07;24.60;99.90
18339;DHT22;9295;44.484;11.240;2022-07-23T04:01:36;24.70;99.90
18339;DHT22;9295;44.484;11.240;2022-07-23T04:04:07;24.70;99.90
18339;DHT22;9295;44.484;11.240;2022-07-23T04:06:37;24.70;99.90
18339;DHT22;9295;44.484;11.240;2022-07-23T04:09:06;24.70;99.90
18339;DHT22;9295;44.484;11.240;2022-07-23T04:11:35;24.70;99.90
18339;DHT22;9295;44.484;11.240;2022-07-23T04:14:03;24.70;99.90
18339;DHT22;9295;44.484;11.240;2022-07-23T04:16:32;24.70;99.90
18339;DHT22;9295;44.484;11.240;2022-07-23T04:19:01;24.70;99.90
18339;DHT22;9295;44.484;11.240;2022-07-23T04:21:42;24.70;99.90
18339;DHT22;9295;44.484;11.240;2022-07-23T04:24:11;24.60;99.90
18339;DHT22;9295;44.484;11.240;2022-07-23T04:26:40;24.60;99.90
18339;DHT22;9295;44.484;11.240;2022-07-23T04:29:09;24.60;99.90
18339;DHT22;9295;44.484;11.240;2022-07-23T04:31:37;24.70;99.90
18339;DHT22;9295;44.484;11.240;2022-07-23T04:34:07;24.70;99.90
18339;DHT22;9295;44.484;11.240;2022-07-23T04:36:35;24.70;99.90
18339;DHT22;9295;44.484;11.240;2022-07-23T04:39:06;24.60;99.90
18339;DHT22;9295;44.484;11.240;2022-07-23T04:41:35;24.60;99.90
18339;DHT22;9295;44.484;11.240;2022-07-23T04:44:04;24.60;99.90
18339;DHT22;9295;44.484;11.240;2022-07-23T04:46:35;24.60;99.90
18339;DHT22;9295;44.484;11.240;2022-07-23T04:49:05;24.60;99.90
18339;DHT22;9295;44.484;11.240;2022-07-23T04:51:35;24.60;99.90
18339;DHT22;9295;44.484;11.240;2022-07-23T04:54:06;24.60;99.90
18339;DHT22;9295;44.484;11.240;2022-07-23T04:56:35;24.60;99.90
18339;DHT22;9295;44.484;11.240;2022-07-23T04:59:05;24.80;99.90
18339;DHT22;9295;44.484;11.240;2022-07-23T05:01:33;24.90;99.90
18339;DHT22;9295;44.484;11.240;2022-07-23T05:04:02;25.00;99.90
18339;DHT22;9295;44.484;11.240;2022-07-23T05:06:34;25.20;99.90
18339;DHT22;9295;44.484;11.240;2022-07-23T05:09:03;25.40;99.90
18339;DHT22;9295;44.484;11.240;2022-07-23T05:11:36;25.50;99.90
18339;DHT22;9295;44.484;11.240;2022-07-23T05:14:07;25.80;99.90
18339;DHT22;9295;44.484;11.240;2022-07-23T05:16:36;26.30;99.90
18339;DHT22;9295;44.484;11.240;2022-07-23T05:19:10;26.70;99.90
18339;DHT22;9295;44.484;11.240;2022-07-23T05:21:40;27.30;99.90
18339;DHT22;9295;44.484;11.240;2022-07-23T05:24:12;27.80;99.90
18339;DHT22;9295;44.484;11.240;2022-07-23T05:26:42;28.40;99.90
18339;DHT22;9295;44.484;11.240;2022-07-23T05:29:13;28.90;99.90
18339;DHT22;9295;44.484;11.240;2022-07-23T05:31:42;29.20;99.90
18339;DHT22;9295;44.484;11.240;2022-07-23T05:34:12;29.50;99.90
18339;DHT22;9295;44.484;11.240;2022-07-23T05:36:45;29.80;99.90
18339;DHT22;9295;44.484;11.240;2022-07-23T05:39:14;30.00;99.90
18339;DHT22;9295;44.484;11.240;2022-07-23T05:41:45;30.40;99.90
18339;DHT22;9295;44.484;11.240;2022-07-23T05:44:14;30.80;99.90
18339;DHT22;9295;44.484;11.240;2022-07-23T05:46:44;31.20;99.30
18339;DHT22;9295;44.484;11.240;2022-07-23T05:49:18;31.20;98.70
18339;DHT22;9295;44.484;11.240;2022-07-23T05:52:10;31.60;98.30
18339;DHT22;9295;44.484;11.240;2022-07-23T05:54:57;31.80;97.90
18339;DHT22;9295;44.484;11.240;2022-07-23T05:57:27;32.20;96.60
18339;DHT22;9295;44.484;11.240;2022-07-23T05:59:55;32.60;96.50
18339;DHT22;9295;44.484;11.240;2022-07-23T06:02:26;33.00;94.90
18339;DHT22;9295;44.484;11.240;2022-07-23T06:04:55;33.10;94.20
18339;DHT22;9295;44.484;11.240;2022-07-23T06:07:30;33.20;93.30
18339;DHT22;9295;44.484;11.240;2022-07-23T06:09:59;33.20;92.80
18339;DHT22;9295;44.484;11.240;2022-07-23T06:12:30;33.60;92.90
18339;DHT22;9295;44.484;11.240;2022-07-23T06:14:59;34.10;91.80
18339;DHT22;9295;44.484;11.240;2022-07-23T06:17:30;34.30;91.50
18339;DHT22;9295;44.484;11.240;2022-07-23T06:19:59;34.70;90.80
18339;DHT22;9295;44.484;11.240;2022-07-23T06:22:28;35.10;90.00
18339;DHT22;9295;44.484;11.240;2022-07-23T06:24:58;35.50;86.10
18339;DHT22;9295;44.484;11.240;2022-07-23T06:27:30;35.80;84.40
18339;DHT22;9295;44.484;11.240;2022-07-23T06:30:01;36.10;81.70
18339;DHT22;9295;44.484;11.240;2022-07-23T06:32:30;36.40;80.10
18339;DHT22;9295;44.484;11.240;2022-07-23T06:34:59;36.60;78.70
18339;DHT22;9295;44.484;11.240;2022-07-23T06:37:28;36.80;77.80
18339;DHT22;9295;44.484;11.240;2022-07-23T06:39:56;37.10;76.60
18339;DHT22;9295;44.484;11.240;2022-07-23T06:42:30;37.30;76.00
18339;DHT22;9295;44.484;11.240;2022-07-23T06:44:59;37.70;74.50
18339;DHT22;9295;44.484;11.240;2022-07-23T06:47:28;37.90;73.90
18339;DHT22;9295;44.484;11.240;2022-07-23T06:49:57;38.20;73.20
18339;DHT22;9295;44.484;11.240;2022-07-23T06:52:25;38.40;71.00
18339;DHT22;9295;44.484;11.240;2022-07-23T06:54:54;38.70;68.10
18339;DHT22;9295;44.484;11.240;2022-07-23T06:57:23;38.20;68.80
18339;DHT22;9295;44.484;11.240;2022-07-23T06:59:56;38.00;70.00
18339;DHT22;9295;44.484;11.240;2022-07-23T07:02:25;38.00;68.90
18339;DHT22;9295;44.484;11.240;2022-07-23T07:04:56;38.00;70.00
18339;DHT22;9295;44.484;11.240;2022-07-23T07:07:31;38.20;69.10
18339;DHT22;9295;44.484;11.240;2022-07-23T07:10:00;38.20;68.30
18339;DHT22;9295;44.484;11.240;2022-07-23T07:12:29;38.30;67.30
18339;DHT22;9295;44.484;11.240;2022-07-23T07:14:59;38.50;67.10
18339;DHT22;9295;44.484;11.240;2022-07-23T07:17:27;38.40;65.20
18339;DHT22;9295;44.484;11.240;2022-07-23T07:19:56;38.50;65.80
18339;DHT22;9295;44.484;11.240;2022-07-23T07:22:25;38.60;66.20
18339;DHT22;9295;44.484;11.240;2022-07-23T07:24:53;38.60;64.70
18339;DHT22;9295;44.484;11.240;2022-07-23T07:27:22;38.50;63.10
18339;DHT22;9295;44.484;11.240;2022-07-23T07:29:50;38.60;63.40
18339;DHT22;9295;44.484;11.240;2022-07-23T07:32:22;38.60;62.90
18339;DHT22;9295;44.484;11.240;2022-07-23T07:35:10;38.80;62.40
18339;DHT22;9295;44.484;11.240;2022-07-23T07:37:39;38.80;62.40
18339;DHT22;9295;44.484;11.240;2022-07-23T07:40:08;38.80;60.10
18339;DHT22;9295;44.484;11.240;2022-07-23T07:42:44;38.10;58.40
18339;DHT22;9295;44.484;11.240;2022-07-23T07:45:13;37.60;58.30
18339;DHT22;9295;44.484;11.240;2022-07-23T07:47:43;37.30;57.80
18339;DHT22;9295;44.484;11.240;2022-07-23T07:50:13;37.10;58.20
18339;DHT22;9295;44.484;11.240;2022-07-23T07:52:44;36.80;58.20
18339;DHT22;9295;44.484;11.240;2022-07-23T07:55:13;36.40;58.30
18339;DHT22;9295;44.484;11.240;2022-07-23T07:57:44;36.40;59.00
18339;DHT22;9295;44.484;11.240;2022-07-23T08:00:16;36.40;58.80
18339;DHT22;9295;44.484;11.240;2022-07-23T08:02:49;36.20;58.80
18339;DHT22;9295;44.484;11.240;2022-07-23T08:05:20;36.20;58.60
18339;DHT22;9295;44.484;11.240;2022-07-23T08:07:53;36.10;58.60
18339;DHT22;9295;44.484;11.240;2022-07-23T08:10:26;36.00;59.90
18339;DHT22;9295;44.484;11.240;2022-07-23T08:12:56;36.00;59.60
18339;DHT22;9295;44.484;11.240;2022-07-23T08:15:27;36.00;59.50
18339;DHT22;9295;44.484;11.240;2022-07-23T08:17:58;35.80;59.40
18339;DHT22;9295;44.484;11.240;2022-07-23T08:20:26;35.70;59.70
18339;DHT22;9295;44.484;11.240;2022-07-23T08:22:57;35.50;60.20
18339;DHT22;9295;44.484;11.240;2022-07-23T08:25:27;35.50;60.50
18339;DHT22;9295;44.484;11.240;2022-07-23T08:27:57;35.60;60.90
18339;DHT22;9295;44.484;11.240;2022-07-23T08:30:27;35.70;61.60
18339;DHT22;9295;44.484;11.240;2022-07-23T08:32:58;35.80;61.50
18339;DHT22;9295;44.484;11.240;2022-07-23T08:35:29;35.90;61.50
18339;DHT22;9295;44.484;11.240;2022-07-23T08:37:59;36.00;61.60
18339;DHT22;9295;44.484;11.240;2022-07-23T08:40:30;36.10;60.80
18339;DHT22;9295;44.484;11.240;2022-07-23T08:42:59;36.10;60.00
18339;DHT22;9295;44.484;11.240;2022-07-23T08:45:28;35.80;60.40
18339;DHT22;9295;44.484;11.240;2022-07-23T08:47:58;35.90;60.60
18339;DHT22;9295;44.484;11.240;2022-07-23T08:50:29;36.10;60.00
18339;DHT22;9295;44.484;11.240;2022-07-23T08:53:01;36.20;58.40
18339;DHT22;9295;44.484;11.240;2022-07-23T08:55:30;36.30;57.70
18339;DHT22;9295;44.484;11.240;2022-07-23T08:57:59;36.40;57.00
18339;DHT22;9295;44.484;11.240;2022-07-23T09:00:28;36.30;57.00
18339;DHT22;9295;44.484;11.240;2022-07-23T09:02:58;36.30;57.40
18339;DHT22;9295;44.484;11.240;2022-07-23T09:05:27;36.40;58.00
18339;DHT22;9295;44.484;11.240;2022-07-23T09:08:06;36.50;58.20
18339;DHT22;9295;44.484;11.240;2022-07-23T09:10:47;36.70;57.00
18339;DHT22;9295;44.484;11.240;2022-07-23T09:13:31;36.70;57.10
18339;DHT22;9295;44.484;11.240;2022-07-23T09:16:02;36.60;55.90
18339;DHT22;9295;44.484;11.240;2022-07-23T09:18:35;36.60;56.40
18339;DHT22;9295;44.484;11.240;2022-07-23T09:21:14;36.60;55.90
18339;DHT22;9295;44.484;11.240;2022-07-23T09:23:46;36.60;55.50
18339;DHT22;9295;44.484;11.240;2022-07-23T09:26:22;36.70;55.30
18339;DHT22;9295;44.484;11.240;2022-07-23T09:28:53;36.80;53.30
18339;DHT22;9295;44.484;11.240;2022-07-23T09:31:23;36.70;53.60
18339;DHT22;9295;44.484;11.240;2022-07-23T09:34:07;36.70;52.50
18339;DHT22;9295;44.484;11.240;2022-07-23T09:36:36;36.70;52.50
18339;DHT22;9295;44.484;11.240;2022-07-23T09:39:05;36.70;52.70
18339;DHT22;9295;44.484;11.240;2022-07-23T09:41:42;36.70;52.40
18339;DHT22;9295;44.484;11.240;2022-07-23T09:44:14;36.70;51.80
18339;DHT22;9295;44.484;11.240;2022-07-23T09:46:45;36.70;51.40
18339;DHT22;9295;44.484;11.240;2022-07-23T09:49:18;36.70;51.40
18339;DHT22;9295;44.484;11.240;2022-07-23T09:51:50;36.60;51.20
18339;DHT22;9295;44.484;11.240;2022-07-23T09:54:28;36.60;51.10
18339;DHT22;9295;44.484;11.240;2022-07-23T09:56:59;36.60;51.60
18339;DHT22;9295;44.484;11.240;2022-07-23T09:59:30;36.70;51.20
18339;DHT22;9295;44.484;11.240;2022-07-23T10:02:01;36.70;51.30
18339;DHT22;9295;44.484;11.240;2022-07-23T10:04:36;36.80;52.40
18339;DHT22;9295;44.484;11.240;2022-07-23T10:07:26;37.00;52.10
18339;DHT22;9295;44.484;11.240;2022-07-23T10:10:15;37.10;52.20
18339;DHT22;9295;44.484;11.240;2022-07-23T10:12:44;37.10;52.50
18339;DHT22;9295;44.484;11.240;2022-07-23T10:15:41;37.40;52.40
18339;DHT22;9295;44.484;11.240;2022-07-23T10:18:11;37.40;51.70
18339;DHT22;9295;44.484;11.240;2022-07-23T10:20:41;37.50;51.80
18339;DHT22;9295;44.484;11.240;2022-07-23T10:23:15;37.60;51.30
18339;DHT22;9295;44.484;11.240;2022-07-23T10:25:54;37.50;51.00
18339;DHT22;9295;44.484;11.240;2022-07-23T10:28:42;37.40;51.40
18339;DHT22;9295;44.484;11.240;2022-07-23T10:31:25;37.50;51.70
18339;DHT22;9295;44.484;11.240;2022-07-23T10:34:21;37.70;51.30
18339;DHT22;9295;44.484;11.240;2022-07-23T10:37:00;38.00;51.30
18339;DHT22;9295;44.484;11.240;2022-07-23T10:39:32;37.90;50.80
18339;DHT22;9295;44.484;11.240;2022-07-23T10:42:09;37.80;51.10
18339;DHT22;9295;44.484;11.240;2022-07-23T10:44:41;37.80;51.10
18339;DHT22;9295;44.484;11.240;2022-07-23T10:47:11;37.70;51.10
18339;DHT22;9295;44.484;11.240;2022-07-23T10:50:18;37.60;52.10
18339;DHT22;9295;44.484;11.240;2022-07-23T10:53:16;37.70;51.60
18339;DHT22;9295;44.484;11.240;2022-07-23T10:55:50;37.60;51.50
18339;DHT22;9295;44.484;11.240;2022-07-23T10:58:45;37.40;51.20
18339;DHT22;9295;44.484;11.240;2022-07-23T11:01:34;37.30;52.00
18339;DHT22;9295;44.484;11.240;2022-07-23T11:04:04;37.30;52.50
18339;DHT22;9295;44.484;11.240;2022-07-23T11:09:49;37.40;52.50
18339;DHT22;9295;44.484;11.240;2022-07-23T11:12:34;37.50;52.00
18339;DHT22;9295;44.484;11.240;2022-07-23T11:15:06;37.30;52.00
18339;DHT22;9295;44.484;11.240;2022-07-23T11:17:36;37.20;52.40
18339;DHT22;9295;44.484;11.240;2022-07-23T11:20:27;37.10;52.30
18339;DHT22;9295;44.484;11.240;2022-07-23T11:22:56;37.20;52.60
18339;DHT22;9295;44.484;11.240;2022-07-23T11:25:33;37.20;52.40
18339;DHT22;9295;44.484;11.240;2022-07-23T11:28:16;37.30;52.60
18339;DHT22;9295;44.484;11.240;2022-07-23T11:30:45;37.30;52.30
18339;DHT22;9295;44.484;11.240;2022-07-23T11:33:20;37.20;52.50
18339;DHT22;9295;44.484;11.240;2022-07-23T11:36:00;37.30;52.70
18339;DHT22;9295;44.484;11.240;2022-07-23T11:38:31;37.30;52.70
18339;DHT22;9295;44.484;11.240;2022-07-23T11:41:03;37.50;52.60
18339;DHT22;9295;44.484;11.240;2022-07-23T11:43:31;37.50;52.60
18339;DHT22;9295;44.484;11.240;2022-07-23T11:46:01;37.70;52.90
18339;DHT22;9295;44.484;11.240;2022-07-23T11:48:30;37.80;53.00
18339;DHT22;9295;44.484;11.240;2022-07-23T11:51:07;37.90;53.00
18339;DHT22;9295;44.484;11.240;2022-07-23T11:53:36;37.70;52.70
18339;DHT22;9295;44.484;11.240;2022-07-23T11:56:08;37.80;52.90
18339;DHT22;9295;44.484;11.240;2022-07-23T11:58:39;37.80;52.30
18339;DHT22;9295;44.484;11.240;2022-07-23T12:01:07;37.70;52.70
18339;DHT22;9295;44.484;11.240;2022-07-23T12:03:49;37.80;53.00
18339;DHT22;9295;44.484;11.240;2022-07-23T12:06:18;37.90;52.70
18339;DHT22;9295;44.484;11.240;2022-07-23T12:08:47;38.00;52.80
18339;DHT22;9295;44.484;11.240;2022-07-23T12:11:17;38.10;52.40
18339;DHT22;9295;44.484;11.240;2022-07-23T12:13:56;38.10;52.10
18339;DHT22;9295;44.484;11.240;2022-07-23T12:16:24;38.10;52.30
18339;DHT22;9295;44.484;11.240;2022-07-23T12:18:53;38.30;52.50
18339;DHT22;9295;44.484;11.240;2022-07-23T12:21:22;38.10;52.10
18339;DHT22;9295;44.484;11.240;2022-07-23T12:23:51;38.10;52.40
18339;DHT22;9295;44.484;11.240;2022-07-23T12:26:21;38.20;52.60
18339;DHT22;9295;44.484;11.240;2022-07-23T12:28:52;38.40;52.70
18339;DHT22;9295;44.484;11.240;2022-07-23T12:31:26;38.50;52.40
18339;DHT22;9295;44.484;11.240;2022-07-23T12:33:55;38.40;52.30
18339;DHT22;9295;44.484;11.240;2022-07-23T12:36:37;38.30;52.30
18339;DHT22;9295;44.484;11.240;2022-07-23T12:39:10;38.30;52.40
18339;DHT22;9295;44.484;11.240;2022-07-23T12:41:53;38.30;52.30
18339;DHT22;9295;44.484;11.240;2022-07-23T12:44:22;38.30;52.30
18339;DHT22;9295;44.484;11.240;2022-07-23T12:46:52;38.20;52.40
18339;DHT22;9295;44.484;11.240;2022-07-23T12:49:26;38.20;52.80
18339;DHT22;9295;44.484;11.240;2022-07-23T12:51:57;38.20;52.30
18339;DHT22;9295;44.484;11.240;2022-07-23T12:54:28;38.20;52.70
18339;DHT22;9295;44.484;11.240;2022-07-23T12:56:58;38.20;52.40
18339;DHT22;9295;44.484;11.240;2022-07-23T12:59:30;38.20;52.50
18339;DHT22;9295;44.484;11.240;2022-07-23T13:02:00;38.20;52.60
18339;DHT22;9295;44.484;11.240;2022-07-23T13:04:30;38.30;52.50
18339;DHT22;9295;44.484;11.240;2022-07-23T13:07:02;38.30;52.40
18339;DHT22;9295;44.484;11.240;2022-07-23T13:09:33;38.30;52.30
18339;DHT22;9295;44.484;11.240;2022-07-23T13:12:10;38.20;52.50
18339;DHT22;9295;44.484;11.240;2022-07-23T13:14:39;38.20;52.70
18339;DHT22;9295;44.484;11.240;2022-07-23T13:17:08;38.40;52.70
18339;DHT22;9295;44.484;11.240;2022-07-23T13:19:37;38.20;52.30
18339;DHT22;9295;44.484;11.240;2022-07-23T13:22:05;38.00;52.40
18339;DHT22;9295;44.484;11.240;2022-07-23T13:24:36;38.00;52.40
18339;DHT22;9295;44.484;11.240;2022-07-23T13:27:05;38.00;52.40
18339;DHT22;9295;44.484;11.240;2022-07-23T13:29:40;38.00;52.70
18339;DHT22;9295;44.484;11.240;2022-07-23T13:32:12;38.20;52.80
18339;DHT22;9295;44.484;11.240;2022-07-23T13:34:41;38.30;52.80
18339;DHT22;9295;44.484;11.240;2022-07-23T13:37:10;38.30;52.50
18339;DHT22;9295;44.484;11.240;2022-07-23T13:39:40;38.30;52.40
18339;DHT22;9295;44.484;11.240;2022-07-23T13:42:09;38.30;52.50
18339;DHT22;9295;44.484;11.240;2022-07-23T13:44:40;38.30;52.60
18339;DHT22;9295;44.484;11.240;2022-07-23T13:47:10;38.40;52.70
18339;DHT22;9295;44.484;11.240;2022-07-23T13:49:40;38.40;52.00
18339;DHT22;9295;44.484;11.240;2022-07-23T13:52:09;38.40;52.50
18339;DHT22;9295;44.484;11.240;2022-07-23T13:54:38;38.50;52.40
18339;DHT22;9295;44.484;11.240;2022-07-23T13:57:07;38.70;52.50
18339;DHT22;9295;44.484;11.240;2022-07-23T13:59:36;38.70;52.00
18339;DHT22;9295;44.484;11.240;2022-07-23T14:02:06;38.60;51.80
18339;DHT22;9295;44.484;11.240;2022-07-23T14:04:52;38.60;52.00
18339;DHT22;9295;44.484;11.240;2022-07-23T14:07:20;38.30;51.90
18339;DHT22;9295;44.484;11.240;2022-07-23T14:09:49;38.20;51.90
18339;DHT22;9295;44.484;11.240;2022-07-23T14:12:18;38.20;52.20
18339;DHT22;9295;44.484;11.240;2022-07-23T14:14:49;38.40;52.30
18339;DHT22;9295;44.484;11.240;2022-07-23T14:17:22;38.60;52.40
18339;DHT22;9295;44.484;11.240;2022-07-23T14:19:52;38.70;52.20
18339;DHT22;9295;44.484;11.240;2022-07-23T14:22:21;38.90;52.20
18339;DHT22;9295;44.484;11.240;2022-07-23T14:24:50;39.00;51.70
18339;DHT22;9295;44.484;11.240;2022-07-23T14:27:19;39.00;51.60
18339;DHT22;9295;44.484;11.240;2022-07-23T14:29:47;39.00;51.50
18339;DHT22;9295;44.484;11.240;2022-07-23T14:32:16;38.80;52.30
18339;DHT22;9295;44.484;11.240;2022-07-23T14:34:47;38.80;51.70
18339;DHT22;9295;44.484;11.240;2022-07-23T14:37:16;38.80;51.80
18339;DHT22;9295;44.484;11.240;2022-07-23T14:39:47;38.80;51.80
18339;DHT22;9295;44.484;11.240;2022-07-23T14:42:16;38.90;52.20
18339;DHT22;9295;44.484;11.240;2022-07-23T14:44:45;38.90;51.70
18339;DHT22;9295;44.484;11.240;2022-07-23T14:47:14;38.90;51.80
18339;DHT22;9295;44.484;11.240;2022-07-23T14:49:49;38.80;51.90
18339;DHT22;9295;44.484;11.240;2022-07-23T14:52:18;38.70;51.90
18339;DHT22;9295;44.484;11.240;2022-07-23T14:54:47;38.70;51.60
18339;DHT22;9295;44.484;11.240;2022-07-23T14:57:16;38.80;52.20
18339;DHT22;9295;44.484;11.240;2022-07-23T14:59:52;38.90;51.90
18339;DHT22;9295;44.484;11.240;2022-07-23T15:02:22;38.90;51.90
18339;DHT22;9295;44.484;11.240;2022-07-23T15:04:52;39.00;51.70
18339;DHT22;9295;44.484;11.240;2022-07-23T15:07:22;39.10;51.90
18339;DHT22;9295;44.484;11.240;2022-07-23T15:09:53;39.30;52.00
18339;DHT22;9295;44.484;11.240;2022-07-23T15:12:22;39.30;51.30
18339;DHT22;9295;44.484;11.240;2022-07-23T15:14:52;39.10;51.30
18339;DHT22;9295;44.484;11.240;2022-07-23T15:17:20;39.00;51.40
18339;DHT22;9295;44.484;11.240;2022-07-23T15:19:54;39.00;51.60
18339;DHT22;9295;44.484;11.240;2022-07-23T15:22:23;39.00;51.70
18339;DHT22;9295;44.484;11.240;2022-07-23T15:24:52;38.90;51.60
18339;DHT22;9295;44.484;11.240;2022-07-23T15:27:20;38.80;51.80
18339;DHT22;9295;44.484;11.240;2022-07-23T15:29:51;38.70;51.70
18339;DHT22;9295;44.484;11.240;2022-07-23T15:32:23;38.60;51.90
18339;DHT22;9295;44.484;11.240;2022-07-23T15:34:55;38.40;52.00
18339;DHT22;9295;44.484;11.240;2022-07-23T15:37:24;38.20;52.20
18339;DHT22;9295;44.484;11.240;2022-07-23T15:39:53;38.10;53.00
18339;DHT22;9295;44.484;11.240;2022-07-23T15:42:22;38.20;52.50
18339;DHT22;9295;44.484;11.240;2022-07-23T15:44:55;38.30;52.50
18339;DHT22;9295;44.484;11.240;2022-07-23T15:47:24;38.40;52.20
18339;DHT22;9295;44.484;11.240;2022-07-23T15:49:54;38.40;50.50
18339;DHT22;9295;44.484;11.240;2022-07-23T15:52:23;38.50;50.70
18339;DHT22;9295;44.484;11.240;2022-07-23T15:54:52;38.70;50.50
18339;DHT22;9295;44.484;11.240;2022-07-23T15:57:20;38.80;50.70
18339;DHT22;9295;44.484;11.240;2022-07-23T15:59:49;38.80;50.60